Pagrindinis puslapis
METAR-TAF:

METAR-TAF

Oro uostai :

Pataja-Rayong, Tailandas

platuma: 12-38N, ilguma: 101-21E, Aukštis: 3 m

Dabartinis oras

Ataskaita buvo paskelbta 33 minutes, ne 01:00 UTC
Vėjas 4 kt iš Šiaurės/Šiaurės Vakarų
Temperatūra 27°C
Drėgmė 79%
Slėgis 1013 hPa
Matomumas: 3000 m
Mažai debesys ne aukštis 2500 ft
rūkana

METAR: VTBU 130100Z 34004KT 3000 BR FEW025 27/23 Q1013 NOSIG

Laikas: 08:33 (01:33 UTC)

Prognozė

Ataskaita buvo paskelbta 2 valandos ir 33 minutes, ne 23:00 UTC
Prognozė galioja nuo 13 metu 00 UTC su 13 metu 24 UTC
Vėjas 4 kt iš Šiaurės
Matomumas: 8000 m
Tapsmas
nuo 13 metu 02 UTC su 13 metu 04 UTC
Vėjas 8 kt iš Pietų
Matomumas: 9000 m
Mažai debesys ne aukštis 2000 ft
Tapsmas
nuo 13 metu 12 UTC su 13 metu 14 UTC
Vėjas 4 kt iš Šiaurės
Matomumas: 5000 m
rūkana

TAF: VTBU 122300Z 1300/1324 36004KT 8000 NSC BECMG 1302/1304 17008KT 9000 FEW020 BECMG 1312/1314 35004KT 5000 BR

Orai ataskaitas ir orų prognozės (METAR, TAF).

turimą stotys yra geltonos ir raudonos taškus žemėlapyje.

Perkelti pele per norėdami pamatyti stoties vardą.

Tada spustelėkite, norėdami matyti oro stebėjimo ir prognozės.

Norėdami pakeisti žemėlapį: spustelėkite ant žalios mygtukų su juodo kryžiaus žemyn,; žalią mygtuką su brūkšneliu, jei norite nutolinti; arba žalių rodyklių gretimoms žemėlapius.


METAR-TAF: